METAR Data
IDs: Format: Raw Decoded Include TAF

Data at: 1953 UTC 18 Apr 2021

KONA 181943Z AUTO 00000KT 10SM SCT075 16/00 A2982 RMK AO2 LTG DSNT S